Jeddito, Arizona
Current Conditions -  °F | °C
As of 10:56 PM on Tuesday 21 Oct 2014 (Local Time) from KINW Reporting Station
Clear Clear  
Wind Chill: 57°   Ceiling: Unl
Heat Index: 57°   Visibility: 10mi
Dew Point: 47°   Wind: 10mph
Humidity: 69%   Direction: 210°SSW
Pressure: 30.05"   Gusts: NA
Location:  35.7968°N, 110.199°W
Report Text: KINW 220556Z AUTO 21009KT 10SM CLR 14/08 A3005 RMK AO2 SLP123 60007 T01390083 10228 20133 51009
Loading
Personal Weather Stations






























Interactive Weather Map
Tropical Storm Tracking
New forecast layout! Learn more

10-Day Weather Forecast

Advertisements
Track Severe Weather on mobile